Time;durP1;ratioP1;P1;durP2;ratioP2;P2;SDS_P1;SDS_P2;PMS_P1;PMS_P2;Temp;Humidity;BMP_temperature;BMP_pressure;BME280_temperature;BME280_humidity;BME280_pressure;Samples;Min_cycle;Max_cycle;Signal;HPM_P1;HPM_P2
2021/11/29 00:01:40;;;;;;;5.40;2.40;;;2.60;87.50;;;;;;5092753;28;20032;-72
2021/11/29 00:04:06;;;;;;;3.72;2.17;;;2.60;87.50;;;;;;5091307;28;20048;-72
2021/11/29 00:06:31;;;;;;;9.40;2.42;;;2.60;87.60;;;;;;5091538;28;20034;-72
2021/11/29 00:08:57;;;;;;;5.72;2.47;;;2.60;87.50;;;;;;5092888;28;20459;-72
2021/11/29 00:11:23;;;;;;;7.38;2.38;;;2.60;87.50;;;;;;5091398;28;20483;-72
2021/11/29 00:13:49;;;;;;;4.15;2.00;;;2.60;87.40;;;;;;5091514;28;20123;-71
2021/11/29 00:16:14;;;;;;;4.32;2.15;;;2.60;87.40;;;;;;5091361;28;20097;-73
2021/11/29 00:18:41;;;;;;;3.08;2.28;;;2.60;87.40;;;;;;5091376;28;20433;-72
2021/11/29 00:21:07;;;;;;;6.13;2.38;;;2.60;87.50;;;;;;5096919;28;20032;-73
2021/11/29 00:23:33;;;;;;;7.45;2.50;;;2.60;87.50;;;;;;5096646;28;20503;-72
2021/11/29 00:25:59;;;;;;;5.68;2.28;;;2.70;87.60;;;;;;5095270;28;20016;-74
2021/11/29 00:28:25;;;;;;;4.32;1.98;;;2.70;87.60;;;;;;5096517;28;20028;-71
2021/11/29 00:30:50;;;;;;;3.63;1.92;;;2.70;87.60;;;;;;5095130;28;20020;-71
2021/11/29 00:33:17;;;;;;;2.92;1.80;;;2.80;87.60;;;;;;5095126;28;20020;-71
2021/11/29 00:35:43;;;;;;;3.30;1.77;;;2.80;87.50;;;;;;5095209;28;20032;-71
2021/11/29 00:38:10;;;;;;;2.72;1.70;;;2.80;87.50;;;;;;5096400;28;20047;-72
2021/11/29 00:40:37;;;;;;;4.82;1.90;;;2.80;87.50;;;;;;5096259;28;20031;-73
2021/11/29 00:43:03;;;;;;;1.67;1.40;;;2.80;87.50;;;;;;5096273;28;20028;-72
2021/11/29 00:45:29;;;;;;;2.38;1.40;;;2.80;87.60;;;;;;5094733;28;20042;-72
2021/11/29 00:47:56;;;;;;;2.72;1.80;;;2.80;87.70;;;;;;5095012;28;20584;-72
2021/11/29 00:50:21;;;;;;;4.55;1.40;;;2.80;87.80;;;;;;5096003;28;20070;-72
2021/11/29 00:52:48;;;;;;;3.13;1.40;;;2.70;87.80;;;;;;5096004;28;20063;-72
2021/11/29 00:58:35;;;;;;;2.70;1.00;;;2.70;88.00;;;;;;5096075;28;20062;-72
2021/11/29 01:01:01;;;;;;;2.78;0.85;;;2.70;88.00;;;;;;5095056;28;20425;-72
2021/11/29 01:03:27;;;;;;;2.03;1.00;;;2.70;88.10;;;;;;5094352;28;20055;-73
2021/11/29 01:05:52;;;;;;;2.58;1.23;;;2.70;88.00;;;;;;5095936;28;20491;-72
2021/11/29 01:08:18;;;;;;;1.83;0.88;;;2.70;88.00;;;;;;5094514;28;20466;-72
2021/11/29 01:14:06;;;;;;;0.65;0.50;;;2.70;88.10;;;;;;5096015;28;20031;-72
2021/11/29 01:16:32;;;;;;;0.88;0.68;;;2.70;88.10;;;;;;5095570;28;20032;-73
2021/11/29 01:18:57;;;;;;;2.67;0.90;;;2.70;88.20;;;;;;5094205;28;20429;-72
2021/11/29 01:21:23;;;;;;;2.90;0.90;;;2.70;88.30;;;;;;5093919;28;20060;-72
2021/11/29 01:23:49;;;;;;;1.80;0.80;;;2.70;88.30;;;;;;5094171;28;20036;-72
2021/11/29 01:26:15;;;;;;;1.02;0.90;;;2.70;88.40;;;;;;5095457;28;20024;-71
2021/11/29 01:28:40;;;;;;;1.75;0.82;;;2.70;88.40;;;;;;5094072;28;20362;-71
2021/11/29 01:31:07;;;;;;;2.30;0.55;;;2.70;88.50;;;;;;5093775;28;20035;-71
2021/11/29 01:33:33;;;;;;;0.80;0.45;;;2.70;88.50;;;;;;5094132;28;20450;-71
2021/11/29 01:35:59;;;;;;;1.52;0.47;;;2.70;88.50;;;;;;5095238;28;20035;-72
2021/11/29 01:38:25;;;;;;;1.17;0.45;;;2.70;88.50;;;;;;5093891;28;20032;-71
2021/11/29 01:40:51;;;;;;;1.65;0.47;;;2.70;88.50;;;;;;5093823;28;20036;-71
2021/11/29 01:43:19;;;;;;;1.85;0.47;;;2.80;88.60;;;;;;5093857;28;20169;-71
2021/11/29 01:45:54;;;;;;;0.90;0.30;;;2.70;88.50;;;;;;5095036;28;20036;-71
2021/11/29 01:48:22;;;;;;;1.67;0.60;;;2.80;88.60;;;;;;5093724;28;20031;-71
2021/11/29 01:50:50;;;;;;;3.05;0.65;;;2.80;88.60;;;;;;5093714;28;20028;-71
2021/11/29 01:53:18;;;;;;;0.95;0.50;;;2.70;88.50;;;;;;5094987;28;20102;-72
2021/11/29 01:55:45;;;;;;;1.63;0.68;;;2.80;88.50;;;;;;5093890;28;20032;-72
2021/11/29 01:58:10;;;;;;;2.70;0.85;;;2.80;88.50;;;;;;5093462;28;20024;-71
2021/11/29 02:00:41;;;;;;;1.85;0.60;;;2.80;88.50;;;;;;5093392;28;20522;-71
2021/11/29 02:03:07;;;;;;;0.85;0.45;;;2.80;88.40;;;;;;5093292;28;20024;-71
2021/11/29 02:05:33;;;;;;;2.08;0.70;;;2.80;88.40;;;;;;5093404;28;20107;-71
2021/11/29 02:08:00;;;;;;;2.92;0.65;;;2.80;88.30;;;;;;5094662;28;20066;-71
2021/11/29 02:10:27;;;;;;;0.73;0.50;;;2.80;88.30;;;;;;5094630;28;20020;-71
2021/11/29 02:12:54;;;;;;;3.20;0.63;;;2.80;88.40;;;;;;5093206;28;20496;-71
2021/11/29 02:15:20;;;;;;;1.33;0.60;;;2.80;88.40;;;;;;5093240;28;20031;-71
2021/11/29 02:17:46;;;;;;;4.40;0.88;;;2.80;88.30;;;;;;5094400;28;20035;-72
2021/11/29 02:20:13;;;;;;;4.63;0.80;;;2.80;88.30;;;;;;5094300;28;20028;-71
2021/11/29 02:22:40;;;;;;;1.75;0.77;;;2.80;88.40;;;;;;5093116;28;20067;-71
2021/11/29 02:25:07;;;;;;;0.70;0.45;;;2.70;88.40;;;;;;5094338;28;20099;-71
2021/11/29 02:27:35;;;;;;;1.90;0.75;;;2.70;88.40;;;;;;5092858;28;20020;-71
2021/11/29 02:30:01;;;;;;;1.88;0.65;;;2.70;88.50;;;;;;5094191;28;20020;-71
2021/11/29 02:32:27;;;;;;;2.22;0.60;;;2.70;88.60;;;;;;5092817;28;20571;-72
2021/11/29 02:34:52;;;;;;;3.17;0.70;;;2.70;88.60;;;;;;5092689;28;20059;-71
2021/11/29 02:37:18;;;;;;;1.52;0.60;;;2.70;88.70;;;;;;5094026;28;20051;-71
2021/11/29 02:39:44;;;;;;;0.85;0.43;;;2.70;88.70;;;;;;5092647;28;20028;-72
2021/11/29 02:42:13;;;;;;;2.08;0.60;;;2.60;88.70;;;;;;5091972;28;20435;-72
2021/11/29 02:44:40;;;;;;;2.65;0.80;;;2.60;88.80;;;;;;5092496;28;20434;-72
2021/11/29 02:47:06;;;;;;;4.70;0.80;;;2.60;88.70;;;;;;5092617;28;20069;-71
2021/11/29 02:49:32;;;;;;;1.80;0.68;;;2.60;88.80;;;;;;5093927;28;20091;-71
2021/11/29 02:52:11;;;;;;;2.20;0.82;;;2.60;88.80;;;;;;5093965;28;20059;-72
2021/11/29 02:54:39;;;;;;;2.03;0.50;;;2.60;88.80;;;;;;5093706;28;20036;-72
2021/11/29 02:57:10;;;;;;;2.60;0.80;;;2.60;88.80;;;;;;5092306;28;20028;-72
2021/11/29 02:59:38;;;;;;;2.05;0.50;;;2.60;88.90;;;;;;5092392;28;20024;-71
2021/11/29 03:02:07;;;;;;;2.00;0.57;;;2.50;88.90;;;;;;5092251;28;20024;-71
2021/11/29 03:04:33;;;;;;;3.42;0.75;;;2.50;88.90;;;;;;5091964;28;20040;-71
2021/11/29 03:07:00;;;;;;;0.70;0.40;;;2.50;88.90;;;;;;5092139;28;20016;-71
2021/11/29 03:09:27;;;;;;;1.45;0.70;;;2.50;88.90;;;;;;5093436;28;20440;-72
2021/11/29 03:11:54;;;;;;;4.07;0.68;;;2.50;88.90;;;;;;5093420;28;20365;-72
2021/11/29 03:14:21;;;;;;;3.55;0.60;;;2.50;88.90;;;;;;5093327;28;20103;-72
2021/11/29 03:16:48;;;;;;;1.38;0.50;;;2.50;88.90;;;;;;5091937;28;20028;-71
2021/11/29 03:19:14;;;;;;;2.67;0.52;;;2.50;88.90;;;;;;5093318;28;20364;-71
2021/11/29 03:21:40;;;;;;;3.40;0.68;;;2.50;88.90;;;;;;5093343;28;20035;-71
2021/11/29 03:24:08;;;;;;;3.28;0.75;;;2.50;88.90;;;;;;5092004;28;20028;-71
2021/11/29 03:26:37;;;;;;;1.77;0.50;;;2.50;89.00;;;;;;5093230;28;20556;-72
2021/11/29 03:29:06;;;;;;;1.85;0.80;;;2.50;89.00;;;;;;5091904;28;20391;-72
2021/11/29 03:31:33;;;;;;;1.90;0.50;;;2.40;89.00;;;;;;5091863;28;20487;-72
2021/11/29 03:34:01;;;;;;;1.40;0.60;;;2.50;89.00;;;;;;5092989;28;20052;-71
2021/11/29 03:36:28;;;;;;;1.15;0.40;;;2.50;89.60;;;;;;5091688;28;20503;-71
2021/11/29 03:38:55;;;;;;;0.90;0.45;;;2.50;89.00;;;;;;5091796;28;20028;-71
2021/11/29 03:41:22;;;;;;;0.47;0.40;;;2.40;88.90;;;;;;5091611;28;20024;-72
2021/11/29 03:43:48;;;;;;;1.08;0.50;;;2.40;89.00;;;;;;5093071;28;20092;-72
2021/11/29 03:46:14;;;;;;;2.72;0.57;;;2.50;89.00;;;;;;5091581;28;20495;-72
2021/11/29 03:48:40;;;;;;;0.60;0.40;;;2.40;89.00;;;;;;5093066;28;20499;-72
2021/11/29 03:51:05;;;;;;;1.35;0.50;;;2.40;89.00;;;;;;5091565;28;20110;-72
2021/11/29 03:53:31;;;;;;;1.48;0.57;;;2.40;89.00;;;;;;5093001;28;20536;-71
2021/11/29 03:55:58;;;;;;;0.70;0.40;;;2.40;89.00;;;;;;5097064;28;20035;-73
2021/11/29 03:58:24;;;;;;;1.33;0.55;;;2.40;89.10;;;;;;5097045;28;20035;-72
2021/11/29 04:00:50;;;;;;;1.40;0.50;;;2.40;89.10;;;;;;5096880;28;20050;-72
2021/11/29 04:03:16;;;;;;;1.27;0.47;;;2.40;89.10;;;;;;5095532;28;20060;-73
2021/11/29 04:05:42;;;;;;;1.75;0.70;;;2.40;89.00;;;;;;5095711;28;20024;-72
2021/11/29 04:08:07;;;;;;;1.42;0.60;;;2.40;89.10;;;;;;5095538;28;20028;-71
2021/11/29 04:10:34;;;;;;;2.05;0.52;;;2.40;89.10;;;;;;5095611;28;20418;-71
2021/11/29 04:12:59;;;;;;;2.85;0.57;;;2.40;89.00;;;;;;5096757;28;20081;-72
2021/11/29 04:15:25;;;;;;;2.88;0.70;;;2.40;89.00;;;;;;5095475;28;20031;-71
2021/11/29 04:17:51;;;;;;;2.65;0.82;;;2.40;89.00;;;;;;5095581;28;20024;-71
2021/11/29 04:20:17;;;;;;;3.83;0.90;;;2.40;89.00;;;;;;5095255;28;20042;-71
2021/11/29 04:22:45;;;;;;;5.43;1.00;;;2.40;89.70;;;;;;5095267;28;20028;-72
2021/11/29 04:25:13;;;;;;;1.55;0.82;;;2.40;89.10;;;;;;5095217;28;20024;-71
2021/11/29 04:27:40;;;;;;;1.65;0.85;;;2.30;89.00;;;;;;5096443;28;20013;-71
2021/11/29 04:30:11;;;;;;;1.52;0.90;;;2.30;89.10;;;;;;5096426;28;20047;-72
2021/11/29 04:32:37;;;;;;;2.58;0.85;;;2.30;89.20;;;;;;5096522;28;20535;-71
2021/11/29 04:35:03;;;;;;;3.53;1.17;;;2.30;89.10;;;;;;5096302;28;20089;-71
2021/11/29 04:37:29;;;;;;;4.32;1.10;;;2.30;89.10;;;;;;5094991;28;20032;-72
2021/11/29 04:39:54;;;;;;;0.75;0.65;;;2.30;89.10;;;;;;5095096;28;20028;-71
2021/11/29 04:45:43;;;;;;;2.65;1.00;;;2.30;89.10;;;;;;5096158;28;20019;-72
2021/11/29 04:48:08;;;;;;;3.60;1.00;;;2.30;89.60;;;;;;5096100;28;20020;-71
2021/11/29 04:50:35;;;;;;;1.48;0.95;;;2.30;89.00;;;;;;5096128;28;20390;-71
2021/11/29 04:53:01;;;;;;;2.03;1.10;;;2.30;89.00;;;;;;5095982;28;20480;-71
2021/11/29 04:55:26;;;;;;;3.53;1.05;;;2.40;89.10;;;;;;5095999;28;20047;-71
2021/11/29 04:57:52;;;;;;;1.38;1.10;;;2.30;88.90;;;;;;5094597;28;20035;-71
2021/11/29 05:00:20;;;;;;;3.33;1.20;;;2.40;89.00;;;;;;5094574;28;20430;-71
2021/11/29 05:02:47;;;;;;;1.10;0.77;;;2.40;89.00;;;;;;5095686;28;20017;-71
2021/11/29 05:05:13;;;;;;;2.53;0.80;;;2.40;89.20;;;;;;5093714;28;20119;-71
2021/11/29 05:07:39;;;;;;;2.33;1.00;;;2.40;88.90;;;;;;5095726;28;20023;-71
2021/11/29 05:10:06;;;;;;;2.78;1.05;;;2.40;88.90;;;;;;5095735;28;20095;-71
2021/11/29 05:12:31;;;;;;;3.90;1.00;;;2.40;88.90;;;;;;5094431;28;20027;-71
2021/11/29 05:14:57;;;;;;;3.50;1.00;;;2.40;88.80;;;;;;5095564;28;20032;-71
2021/11/29 05:17:24;;;;;;;6.18;1.10;;;2.40;88.80;;;;;;5095574;28;20028;-71
2021/11/29 05:19:49;;;;;;;2.58;0.90;;;2.40;88.70;;;;;;5094205;28;20024;-71
2021/11/29 05:22:15;;;;;;;1.15;0.82;;;2.40;88.70;;;;;;5094129;28;20396;-71
2021/11/29 05:24:41;;;;;;;2.10;0.85;;;2.40;88.60;;;;;;5094128;28;20027;-71
2021/11/29 05:27:07;;;;;;;2.47;1.00;;;2.40;88.60;;;;;;5094084;28;20491;-71
2021/11/29 05:32:54;;;;;;;3.47;1.00;;;2.40;88.70;;;;;;5095295;28;20031;-70
2021/11/29 05:35:20;;;;;;;3.20;0.90;;;2.40;88.70;;;;;;5094082;28;20012;-71
2021/11/29 05:37:46;;;;;;;2.78;0.93;;;2.40;88.70;;;;;;5093837;28;20016;-71
2021/11/29 05:40:12;;;;;;;2.35;1.10;;;2.40;88.70;;;;;;5094937;28;20025;-71
2021/11/29 05:42:38;;;;;;;2.67;0.93;;;2.40;88.70;;;;;;5093745;28;20045;-71
2021/11/29 05:45:05;;;;;;;3.58;0.90;;;2.40;88.70;;;;;;5093687;28;20016;-72
2021/11/29 05:47:30;;;;;;;6.55;1.38;;;2.40;88.70;;;;;;5094959;28;20021;-71
2021/11/29 05:49:56;;;;;;;5.20;1.10;;;2.40;88.70;;;;;;5093625;28;20024;-71
2021/11/29 05:52:21;;;;;;;3.03;1.05;;;2.40;88.70;;;;;;5093563;28;20027;-71
2021/11/29 05:54:47;;;;;;;3.03;1.10;;;2.40;88.70;;;;;;5093436;28;20028;-71
2021/11/29 05:57:13;;;;;;;2.97;1.02;;;2.40;88.70;;;;;;5093493;28;20027;-71
2021/11/29 05:59:39;;;;;;;4.22;1.10;;;2.40;88.70;;;;;;5093285;28;20081;-71
2021/11/29 06:02:06;;;;;;;1.45;1.05;;;2.40;88.70;;;;;;5093212;28;20391;-71
2021/11/29 06:04:32;;;;;;;3.40;1.23;;;2.40;88.70;;;;;;5093122;28;20051;-71
2021/11/29 06:06:57;;;;;;;2.03;1.20;;;2.40;88.70;;;;;;5093202;28;20114;-72
2021/11/29 06:09:23;;;;;;;3.00;1.02;;;2.40;88.70;;;;;;5093159;28;20094;-74
2021/11/29 06:11:48;;;;;;;3.45;1.30;;;2.40;88.70;;;;;;5092996;28;20085;-74
2021/11/29 06:14:14;;;;;;;8.10;1.33;;;2.40;88.70;;;;;;5093163;28;20020;-74
2021/11/29 06:16:41;;;;;;;2.28;0.95;;;2.40;88.70;;;;;;5091846;28;20028;-74
2021/11/29 06:19:06;;;;;;;2.85;1.20;;;2.40;88.70;;;;;;5093021;28;20069;-73
2021/11/29 06:21:32;;;;;;;3.38;1.30;;;2.40;88.70;;;;;;5094636;28;20433;-73
2021/11/29 06:23:58;;;;;;;1.83;1.00;;;2.40;88.80;;;;;;5092653;28;20483;-74
2021/11/29 06:26:23;;;;;;;3.85;1.40;;;2.40;88.80;;;;;;5092790;28;20522;-71
2021/11/29 06:28:49;;;;;;;2.33;1.10;;;2.30;88.80;;;;;;5094030;28;20024;-71
2021/11/29 06:31:15;;;;;;;1.48;1.10;;;2.40;88.90;;;;;;5092678;28;20027;-72
2021/11/29 06:33:41;;;;;;;2.78;1.30;;;2.50;88.90;;;;;;5092621;28;20023;-71
2021/11/29 06:36:07;;;;;;;5.75;1.30;;;2.50;88.80;;;;;;5092776;28;20028;-71
2021/11/29 06:38:33;;;;;;;2.60;1.40;;;2.50;88.60;;;;;;5094113;28;20024;-78
2021/11/29 06:41:00;;;;;;;3.58;1.60;;;2.50;88.60;;;;;;5092715;28;20028;-71
2021/11/29 06:43:27;;;;;;;4.03;1.42;;;2.50;88.60;;;;;;5092605;28;20062;-71
2021/11/29 06:45:53;;;;;;;2.83;1.88;;;2.50;88.70;;;;;;5093764;28;20031;-71
2021/11/29 06:48:20;;;;;;;3.25;1.50;;;2.50;88.70;;;;;;5093873;28;20027;-71
2021/11/29 06:50:46;;;;;;;3.05;1.67;;;2.50;88.70;;;;;;5093592;28;20035;-72
2021/11/29 06:53:15;;;;;;;1.98;1.48;;;2.50;88.70;;;;;;5092469;28;20024;-71
2021/11/29 06:55:41;;;;;;;3.22;1.40;;;2.60;88.70;;;;;;5092310;28;20444;-72
2021/11/29 06:58:07;;;;;;;2.40;1.40;;;2.60;88.70;;;;;;5093774;28;20023;-71
2021/11/29 07:00:33;;;;;;;4.18;1.60;;;2.70;88.60;;;;;;5092223;28;20020;-72
2021/11/29 07:02:59;;;;;;;2.78;1.40;;;2.70;88.40;;;;;;5092131;28;20016;-71
2021/11/29 07:05:27;;;;;;;7.78;1.70;;;2.70;88.30;;;;;;5093351;28;20047;-72
2021/11/29 07:07:53;;;;;;;6.53;1.63;;;2.80;88.40;;;;;;5092084;28;20020;-72
2021/11/29 07:10:20;;;;;;;3.35;1.50;;;2.80;88.30;;;;;;5092210;28;20494;-71
2021/11/29 07:12:47;;;;;;;2.78;1.52;;;2.80;88.30;;;;;;5092052;28;20057;-71
2021/11/29 07:15:14;;;;;;;3.17;1.40;;;2.90;88.30;;;;;;5092151;28;20097;-72
2021/11/29 07:17:41;;;;;;;4.90;1.70;;;2.90;88.30;;;;;;5093157;28;20020;-72
2021/11/29 07:20:07;;;;;;;2.88;1.60;;;2.90;88.20;;;;;;5091733;28;20047;-72
2021/11/29 07:22:33;;;;;;;4.03;1.38;;;3.00;88.20;;;;;;5092004;28;20480;-72
2021/11/29 07:25:03;;;;;;;4.80;1.40;;;3.10;88.10;;;;;;5091912;28;20027;-72
2021/11/29 07:27:28;;;;;;;5.38;1.40;;;3.10;88.10;;;;;;5091803;28;20095;-71
2021/11/29 07:29:54;;;;;;;2.40;1.40;;;3.20;88.00;;;;;;5092995;28;20503;-71
2021/11/29 07:32:22;;;;;;;3.05;1.50;;;3.20;88.00;;;;;;5091793;28;20073;-71
2021/11/29 07:34:48;;;;;;;3.05;1.40;;;3.20;87.90;;;;;;5091737;28;20514;-71
2021/11/29 07:37:16;;;;;;;3.85;1.40;;;3.30;87.90;;;;;;5091807;28;20028;-70
2021/11/29 07:39:43;;;;;;;6.65;1.88;;;3.30;87.80;;;;;;5093030;28;20020;-71
2021/11/29 07:42:09;;;;;;;4.45;1.45;;;3.30;87.80;;;;;;5091733;28;20081;-71
2021/11/29 07:44:38;;;;;;;7.25;1.50;;;3.30;87.80;;;;;;5092227;28;20020;-71
2021/11/29 07:47:04;;;;;;;2.60;1.60;;;3.40;88.00;;;;;;5091780;28;20467;-71
2021/11/29 07:49:30;;;;;;;3.80;1.85;;;3.40;87.90;;;;;;5091844;28;20016;-71
2021/11/29 07:51:55;;;;;;;5.22;1.42;;;3.40;87.80;;;;;;5091624;28;20050;-71
2021/11/29 07:54:21;;;;;;;4.70;1.42;;;3.40;87.80;;;;;;5093098;28;20480;-71
2021/11/29 07:56:47;;;;;;;5.65;1.63;;;3.50;88.50;;;;;;5091724;28;20032;-71
2021/11/29 07:59:13;;;;;;;2.22;1.20;;;3.60;87.90;;;;;;5091820;28;20028;-71
2021/11/29 08:01:38;;;;;;;2.35;1.10;;;3.60;87.80;;;;;;5091760;28;20020;-72
2021/11/29 08:04:04;;;;;;;3.53;1.15;;;3.60;87.80;;;;;;5092016;28;20515;-71
2021/11/29 08:06:30;;;;;;;3.67;1.40;;;3.70;87.80;;;;;;5092218;28;20016;-72
2021/11/29 08:08:56;;;;;;;2.63;1.45;;;3.70;87.80;;;;;;5092818;28;20111;-74
2021/11/29 08:11:22;;;;;;;5.30;1.55;;;3.80;87.70;;;;;;5092446;28;20020;-72
2021/11/29 08:13:48;;;;;;;4.18;1.27;;;3.80;87.70;;;;;;5092007;28;20020;-72
2021/11/29 08:16:14;;;;;;;4.53;1.40;;;3.80;87.70;;;;;;5094804;28;20498;-73
2021/11/29 08:18:40;;;;;;;3.65;1.10;;;3.80;87.60;;;;;;5092149;28;20020;-72
2021/11/29 08:21:06;;;;;;;3.97;1.25;;;3.90;87.60;;;;;;5092295;28;20443;-73
2021/11/29 08:23:33;;;;;;;2.70;1.30;;;3.90;88.00;;;;;;5093978;28;20031;-72
2021/11/29 08:25:59;;;;;;;4.65;1.40;;;3.90;87.70;;;;;;5102775;28;20027;-73
2021/11/29 08:28:25;;;;;;;4.90;1.30;;;4.00;87.70;;;;;;5104672;28;20016;-73
2021/11/29 08:30:51;;;;;;;3.78;1.38;;;4.00;87.60;;;;;;5103482;28;20479;-72
2021/11/29 08:33:16;;;;;;;4.50;1.42;;;4.00;87.60;;;;;;5106071;28;20028;-72
2021/11/29 08:35:44;;;;;;;2.55;1.10;;;4.00;87.60;;;;;;5106502;28;20027;-74
2021/11/29 08:41:33;;;;;;;5.10;1.55;;;4.00;87.70;;;;;;5113987;28;20065;-73
2021/11/29 08:44:00;;;;;;;5.82;1.60;;;4.10;87.80;;;;;;5108801;28;20020;-73
2021/11/29 08:46:26;;;;;;;3.13;1.00;;;4.10;87.90;;;;;;5109639;28;20107;-74
2021/11/29 08:48:52;;;;;;;5.28;1.73;;;4.10;87.80;;;;;;5107352;28;20078;-74
2021/11/29 08:51:18;;;;;;;5.60;1.33;;;4.10;87.80;;;;;;5107542;28;20096;-73
2021/11/29 08:53:45;;;;;;;2.28;1.20;;;4.10;87.90;;;;;;5108880;28;20054;-73
2021/11/29 08:56:11;;;;;;;3.33;0.80;;;4.00;88.00;;;;;;5103207;28;20028;-77
2021/11/29 08:58:37;;;;;;;4.78;1.30;;;4.10;88.10;;;;;;5101750;28;20130;-76
2021/11/29 09:01:04;;;;;;;5.32;1.23;;;4.00;88.10;;;;;;5095767;28;20076;-74
2021/11/29 09:03:30;;;;;;;4.13;1.30;;;4.00;88.20;;;;;;5096729;28;20063;-74
2021/11/29 09:05:57;;;;;;;3.40;0.90;;;4.00;88.30;;;;;;5096880;28;20031;-74
2021/11/29 09:08:23;;;;;;;4.57;0.98;;;4.00;88.40;;;;;;5095063;28;20020;-73
2021/11/29 09:10:50;;;;;;;1.73;0.90;;;4.00;88.50;;;;;;5095129;28;20103;-73
2021/11/29 09:13:16;;;;;;;3.17;1.00;;;4.10;88.50;;;;;;5095264;28;20017;-74
2021/11/29 09:15:44;;;;;;;2.28;0.85;;;4.10;88.50;;;;;;5095207;28;20012;-75
2021/11/29 09:18:11;;;;;;;3.47;0.98;;;4.20;88.60;;;;;;5095911;28;20035;-74
2021/11/29 09:20:40;;;;;;;3.92;1.30;;;4.30;88.50;;;;;;5094313;28;20028;-74
2021/11/29 09:23:06;;;;;;;2.92;0.90;;;4.40;88.50;;;;;;5094669;28;20053;-76
2021/11/29 09:25:40;;;;;;;5.03;0.98;;;4.50;88.40;;;;;;5095912;28;20016;-74
2021/11/29 09:28:07;;;;;;;1.50;0.80;;;4.70;88.30;;;;;;5094430;28;20023;-74
2021/11/29 09:30:32;;;;;;;2.92;0.98;;;4.80;88.20;;;;;;5094198;28;20055;-73
2021/11/29 09:32:58;;;;;;;1.92;0.98;;;4.90;88.00;;;;;;5094339;28;20476;-75
2021/11/29 09:35:24;;;;;;;4.63;1.02;;;4.90;88.00;;;;;;5094075;28;20456;-74
2021/11/29 09:37:49;;;;;;;1.85;0.80;;;4.90;88.50;;;;;;5094052;28;20031;-75
2021/11/29 09:40:26;;;;;;;2.05;0.70;;;5.00;87.90;;;;;;5095297;28;20031;-74
2021/11/29 09:42:53;;;;;;;1.67;0.80;;;5.10;87.90;;;;;;5091199;28;20034;-75
2021/11/29 09:45:21;;;;;;;2.80;0.95;;;5.10;88.30;;;;;;5093648;28;20488;-75
2021/11/29 09:47:47;;;;;;;1.73;0.88;;;5.10;87.80;;;;;;5093952;28;20428;-75
2021/11/29 09:50:14;;;;;;;2.33;0.75;;;5.20;87.70;;;;;;5093808;28;20039;-75
2021/11/29 09:52:41;;;;;;;2.97;0.90;;;5.20;87.70;;;;;;5093533;28;20028;-75
2021/11/29 09:55:09;;;;;;;0.90;0.60;;;5.30;87.70;;;;;;5093727;28;20038;-75
2021/11/29 09:57:37;;;;;;;1.55;0.85;;;5.40;87.70;;;;;;5094031;28;20141;-75
2021/11/29 10:00:04;;;;;;;3.03;1.13;;;5.40;87.60;;;;;;5094922;28;20101;-75
2021/11/29 10:02:29;;;;;;;1.65;0.55;;;5.50;87.50;;;;;;5093453;28;20146;-76
2021/11/29 10:04:55;;;;;;;2.95;0.85;;;5.50;87.50;;;;;;5093400;28;20516;-75
2021/11/29 10:07:33;;;;;;;1.23;0.80;;;5.60;87.50;;;;;;5093817;28;20028;-76
2021/11/29 10:13:23;;;;;;;1.83;0.70;;;5.60;87.50;;;;;;5094758;28;20035;-76
2021/11/29 10:15:50;;;;;;;1.33;0.60;;;5.70;87.40;;;;;;5093297;28;20032;-74
2021/11/29 10:18:21;;;;;;;1.15;0.60;;;5.70;87.30;;;;;;5093297;28;20530;-75
2021/11/29 10:20:59;;;;;;;2.20;0.70;;;5.70;87.30;;;;;;5093098;28;20503;-76
2021/11/29 10:26:53;;;;;;;2.53;0.80;;;5.80;87.30;;;;;;5094445;28;20022;-78
2021/11/29 10:29:22;;;;;;;1.63;0.80;;;5.80;87.30;;;;;;5093065;28;20024;-78
2021/11/29 10:31:51;;;;;;;1.45;0.70;;;5.80;87.30;;;;;;5092918;28;20395;-76
2021/11/29 10:37:44;;;;;;;1.83;0.88;;;5.90;87.20;;;;;;5092424;28;20471;-74
2021/11/29 10:40:14;;;;;;;3.63;0.73;;;5.90;87.20;;;;;;5074905;28;20028;-77
2021/11/29 10:42:40;;;;;;;1.77;0.60;;;5.90;87.30;;;;;;5075523;28;20024;-77
2021/11/29 10:45:08;;;;;;;1.33;0.63;;;5.90;87.30;;;;;;5074820;28;20050;-76
2021/11/29 10:47:35;;;;;;;1.45;0.70;;;6.00;87.40;;;;;;5072021;28;20048;-74
2021/11/29 10:50:04;;;;;;;2.40;0.90;;;6.00;87.30;;;;;;5074941;28;20040;-76
2021/11/29 10:56:03;;;;;;;1.23;0.77;;;6.10;87.20;;;;;;5091807;28;20027;-76
2021/11/29 10:58:40;;;;;;;1.52;1.00;;;5.90;87.10;;;;;;5072011;28;20174;-75
2021/11/29 11:01:06;;;;;;;2.92;1.05;;;5.90;87.20;;;;;;5074561;28;20027;-76
2021/11/29 11:03:55;;;;;;;0.93;0.80;;;5.80;87.50;;;;;;5090905;28;20040;-76
2021/11/29 11:06:30;;;;;;;0.93;0.70;;;5.80;87.60;;;;;;5074452;28;20020;-75
2021/11/29 11:12:20;;;;;;;0.70;0.70;;;6.00;88.20;;;;;;5093547;28;20035;-75
2021/11/29 11:14:52;;;;;;;2.08;0.80;;;6.00;87.60;;;;;;5092167;28;20020;-75
2021/11/29 11:17:19;;;;;;;2.92;1.05;;;6.10;87.60;;;;;;5092226;28;20016;-75
2021/11/29 11:20:14;;;;;;;3.70;1.35;;;6.10;87.50;;;;;;5092189;28;20471;-75
2021/11/29 11:22:51;;;;;;;3.45;0.90;;;6.20;88.00;;;;;;5091018;28;20446;-75
2021/11/29 11:25:24;;;;;;;3.85;0.90;;;6.30;87.30;;;;;;5092021;28;20039;-75
2021/11/29 11:28:05;;;;;;;2.00;0.80;;;6.30;87.20;;;;;;5092043;28;20384;-75
2021/11/29 11:30:36;;;;;;;1.98;0.73;;;6.30;87.20;;;;;;5093295;28;20024;-75
2021/11/29 11:33:16;;;;;;;2.10;0.73;;;6.40;87.10;;;;;;5091862;28;20032;-73
2021/11/29 11:35:44;;;;;;;0.95;0.88;;;6.50;87.00;;;;;;5091782;28;20024;-76
2021/11/29 11:38:13;;;;;;;1.92;0.98;;;6.50;86.90;;;;;;5091842;28;20418;-74
2021/11/29 11:40:44;;;;;;;1.48;0.80;;;6.60;86.90;;;;;;5091732;28;20031;-75
2021/11/29 11:43:12;;;;;;;1.35;1.00;;;6.60;86.80;;;;;;5091722;28;20341;-75
2021/11/29 11:45:40;;;;;;;1.88;1.02;;;6.70;86.90;;;;;;5091926;28;20078;-74
2021/11/29 11:48:09;;;;;;;2.05;0.98;;;6.70;86.60;;;;;;5091749;28;20495;-76
2021/11/29 11:50:38;;;;;;;1.08;0.95;;;6.80;86.60;;;;;;5093005;28;20146;-75
2021/11/29 11:53:06;;;;;;;2.97;1.00;;;6.90;86.50;;;;;;5091757;28;20031;-73
2021/11/29 11:55:41;;;;;;;1.65;0.98;;;7.00;86.30;;;;;;5091559;28;20113;-75
2021/11/29 11:58:12;;;;;;;2.35;0.88;;;7.20;86.10;;;;;;5092836;28;20581;-76
2021/11/29 12:00:48;;;;;;;2.80;0.77;;;7.30;85.80;;;;;;5091611;28;20024;-74
2021/11/29 12:03:33;;;;;;;1.25;0.90;;;7.40;85.60;;;;;;5092616;28;20043;-76
2021/11/29 12:06:04;;;;;;;2.47;1.00;;;7.40;85.40;;;;;;5091410;28;20522;-74
2021/11/29 12:08:39;;;;;;;5.25;0.98;;;7.50;85.30;;;;;;5091351;28;20017;-75
2021/11/29 12:11:26;;;;;;;1.23;0.80;;;7.60;84.60;;;;;;5091556;28;20056;-74
2021/11/29 12:14:12;;;;;;;1.92;1.05;;;7.60;84.40;;;;;;5091341;28;20024;-74
2021/11/29 12:16:43;;;;;;;1.40;0.77;;;7.70;84.40;;;;;;5094719;28;20024;-73
2021/11/29 12:19:24;;;;;;;3.42;0.90;;;7.70;84.00;;;;;;5095493;28;20118;-77
2021/11/29 12:21:50;;;;;;;3.00;1.00;;;7.60;83.60;;;;;;5096662;28;20028;-74
2021/11/29 12:24:20;;;;;;;3.40;1.00;;;7.60;83.70;;;;;;5095337;28;20016;-75
2021/11/29 12:26:48;;;;;;;2.05;0.93;;;7.50;83.60;;;;;;5096667;28;20073;-74
2021/11/29 12:29:20;;;;;;;4.07;1.10;;;7.40;83.70;;;;;;5096508;28;20472;-74
2021/11/29 12:32:08;;;;;;;2.17;1.02;;;7.30;84.00;;;;;;5095327;28;20115;-74
2021/11/29 12:37:26;;;;;;;2.30;0.93;;;7.00;84.20;;;;;;5096695;28;20123;-74
2021/11/29 12:40:13;;;;;;;1.85;1.05;;;7.00;84.50;;;;;;5095099;28;20027;-74
2021/11/29 12:42:39;;;;;;;2.10;1.17;;;7.00;84.60;;;;;;5094918;28;20028;-74
2021/11/29 12:45:05;;;;;;;2.88;1.20;;;7.00;84.50;;;;;;5096239;28;20027;-75
2021/11/29 12:47:55;;;;;;;2.22;0.95;;;7.00;84.60;;;;;;5094906;28;20020;-75
2021/11/29 12:50:34;;;;;;;2.92;1.30;;;7.10;84.30;;;;;;5095197;28;20090;-74
2021/11/29 12:53:14;;;;;;;2.72;1.20;;;7.10;84.00;;;;;;5094801;28;20016;-75
2021/11/29 12:55:42;;;;;;;1.95;1.27;;;7.20;84.00;;;;;;5094773;28;20103;-75
2021/11/29 12:58:10;;;;;;;2.63;1.25;;;7.30;83.60;;;;;;5095105;28;20024;-75
2021/11/29 13:00:42;;;;;;;2.97;1.13;;;7.40;83.30;;;;;;5094674;28;20028;-76
2021/11/29 13:03:10;;;;;;;1.40;1.08;;;7.40;83.10;;;;;;5094304;28;20421;-77
2021/11/29 13:05:40;;;;;;;1.52;1.20;;;7.50;83.10;;;;;;5094599;28;20024;-77
2021/11/29 13:08:07;;;;;;;1.88;1.40;;;7.40;83.00;;;;;;5094546;28;20023;-76
2021/11/29 13:11:00;;;;;;;2.20;1.30;;;7.40;82.90;;;;;;5094568;28;20065;-76
2021/11/29 13:13:38;;;;;;;1.52;1.42;;;7.40;82.80;;;;;;5094490;28;20483;-77
2021/11/29 13:16:09;;;;;;;2.92;1.73;;;7.30;82.70;;;;;;5095826;28;20028;-75
2021/11/29 13:18:51;;;;;;;2.58;1.27;;;7.40;82.70;;;;;;5094358;28;20026;-76
2021/11/29 13:21:25;;;;;;;2.65;1.20;;;7.40;82.50;;;;;;5094233;28;20390;-75
2021/11/29 13:24:04;;;;;;;1.42;1.10;;;7.40;82.60;;;;;;5094261;28;20016;-76
2021/11/29 13:26:32;;;;;;;1.90;1.25;;;7.50;82.70;;;;;;5094974;28;20024;-76
2021/11/29 13:29:01;;;;;;;2.40;1.08;;;7.60;82.60;;;;;;5094095;28;20535;-75
2021/11/29 13:31:36;;;;;;;1.15;1.02;;;7.70;82.60;;;;;;5094205;28;20518;-75
2021/11/29 13:34:04;;;;;;;2.35;1.33;;;7.70;82.40;;;;;;5095442;28;20020;-75
2021/11/29 13:36:41;;;;;;;2.38;1.40;;;7.80;82.00;;;;;;5093946;28;20404;-76
2021/11/29 13:39:13;;;;;;;1.65;1.23;;;7.80;81.80;;;;;;5091022;28;20036;-75